createdAt,value
2024-05-09T00:02:26.225Z,9.79
2024-05-09T00:04:56.750Z,9.79
2024-05-09T00:07:27.310Z,9.71
2024-05-09T00:10:00.394Z,9.66
2024-05-09T00:12:30.884Z,9.66
2024-05-09T00:15:01.191Z,9.63
2024-05-09T00:17:31.779Z,9.59
2024-05-09T00:20:02.121Z,9.51
2024-05-09T00:22:32.524Z,9.53
2024-05-09T00:25:06.232Z,9.41
2024-05-09T00:27:36.556Z,9.40
2024-05-09T00:30:07.540Z,9.37
2024-05-09T00:32:38.200Z,9.32
2024-05-09T00:35:09.464Z,9.31
2024-05-09T00:37:39.837Z,9.31
2024-05-09T00:40:18.775Z,9.24
2024-05-09T00:42:57.552Z,9.27
2024-05-09T00:45:27.964Z,9.24
2024-05-09T00:47:58.917Z,9.20
2024-05-09T00:50:35.261Z,9.16
2024-05-09T00:53:09.065Z,9.12
2024-05-09T00:55:43.060Z,9.14
2024-05-09T00:58:17.299Z,9.08
2024-05-09T01:00:47.988Z,9.05
2024-05-09T01:03:19.122Z,9.05
2024-05-09T01:05:49.905Z,9.02
2024-05-09T01:08:21.366Z,9.01
2024-05-09T01:10:54.733Z,9.01
2024-05-09T01:13:25.225Z,9.03
2024-05-09T01:15:55.977Z,8.95
2024-05-09T01:18:26.755Z,8.98
2024-05-09T01:20:57.341Z,9.01
2024-05-09T01:23:30.486Z,8.92
2024-05-09T01:26:00.993Z,8.91
2024-05-09T01:28:31.228Z,8.90
2024-05-09T01:31:01.632Z,8.86
2024-05-09T01:33:32.475Z,8.82
2024-05-09T01:36:03.056Z,8.80
2024-05-09T01:38:36.281Z,8.81
2024-05-09T01:41:07.150Z,8.77
2024-05-09T01:43:37.548Z,8.80
2024-05-09T01:46:08.131Z,8.76
2024-05-09T01:48:38.499Z,8.71
2024-05-09T01:51:09.285Z,8.68
2024-05-09T01:53:42.593Z,8.74
2024-05-09T01:56:13.491Z,8.73
2024-05-09T01:58:43.887Z,8.72
2024-05-09T02:01:14.337Z,8.74
2024-05-09T02:03:48.157Z,8.73
2024-05-09T02:06:18.562Z,8.73
2024-05-09T02:08:51.650Z,8.72
2024-05-09T02:11:22.275Z,8.64
2024-05-09T02:13:52.857Z,8.64
2024-05-09T02:16:23.227Z,8.63
2024-05-09T02:18:53.491Z,8.64
2024-05-09T02:21:23.928Z,8.58
2024-05-09T02:23:57.069Z,8.61
2024-05-09T02:26:27.418Z,8.60
2024-05-09T02:28:57.921Z,8.63
2024-05-09T02:31:28.266Z,8.48
2024-05-09T02:33:58.748Z,8.45
2024-05-09T02:36:26.629Z,8.37
2024-05-09T02:38:59.571Z,8.53
2024-05-09T02:41:27.360Z,8.53
2024-05-09T02:43:57.913Z,8.41
2024-05-09T02:46:25.623Z,8.31
2024-05-09T02:48:55.899Z,8.32
2024-05-09T02:51:23.500Z,8.43
2024-05-09T02:53:53.782Z,8.48
2024-05-09T02:56:24.217Z,8.45
2024-05-09T02:58:54.575Z,8.56
2024-05-09T03:01:22.446Z,8.44
2024-05-09T03:03:52.965Z,8.36
2024-05-09T03:06:20.678Z,8.38
2024-05-09T03:08:51.055Z,8.24
2024-05-09T03:11:25.399Z,8.31
2024-05-09T03:13:56.296Z,8.34
2024-05-09T03:16:24.068Z,8.37
2024-05-09T03:18:54.843Z,8.32
2024-05-09T03:21:22.720Z,8.29
2024-05-09T03:23:53.153Z,8.26
2024-05-09T03:26:23.686Z,8.29
2024-05-09T03:28:54.020Z,8.23
2024-05-09T03:31:21.709Z,8.20
2024-05-09T03:33:52.202Z,8.14
2024-05-09T03:36:20.013Z,8.18
2024-05-09T03:38:51.064Z,8.21
2024-05-09T03:41:22.605Z,8.08
2024-05-09T03:43:55.691Z,8.07
2024-05-09T03:46:23.341Z,8.06
2024-05-09T03:48:53.625Z,7.98
2024-05-09T03:51:23.996Z,7.93
2024-05-09T03:53:51.608Z,7.96
2024-05-09T03:56:21.982Z,7.92
2024-05-09T03:58:49.683Z,7.92
2024-05-09T04:01:23.120Z,7.98
2024-05-09T04:03:51.245Z,7.87
2024-05-09T04:06:26.195Z,7.94
2024-05-09T04:08:53.795Z,7.91
2024-05-09T04:11:24.177Z,7.93
2024-05-09T04:13:51.974Z,7.98
2024-05-09T04:16:24.970Z,7.92
2024-05-09T04:18:52.639Z,7.89
2024-05-09T04:21:23.005Z,7.85
2024-05-09T04:23:50.707Z,7.90
2024-05-09T04:26:21.066Z,7.84
2024-05-09T04:28:48.793Z,7.83
2024-05-09T04:31:19.125Z,7.73
2024-05-09T04:33:49.610Z,7.82
2024-05-09T04:36:20.087Z,7.92
2024-05-09T04:38:47.747Z,7.77
2024-05-09T04:41:18.187Z,7.88
2024-05-09T04:43:45.978Z,7.90
2024-05-09T04:46:17.586Z,8.01
2024-05-09T04:48:45.294Z,8.00
2024-05-09T04:51:18.332Z,7.94
2024-05-09T04:53:46.097Z,8.08
2024-05-09T04:56:16.373Z,8.08
2024-05-09T04:58:44.150Z,8.18
2024-05-09T05:01:14.510Z,8.16
2024-05-09T05:03:42.672Z,8.22
2024-05-09T05:06:13.374Z,8.23
2024-05-09T05:08:43.848Z,8.33
2024-05-09T05:11:15.159Z,8.36
2024-05-09T05:13:42.955Z,8.37
2024-05-09T05:16:13.412Z,8.38
2024-05-09T05:18:41.105Z,8.47
2024-05-09T05:21:11.562Z,8.36
2024-05-09T05:23:42.960Z,8.41
2024-05-09T05:26:13.586Z,8.47
2024-05-09T05:28:41.364Z,8.52
2024-05-09T05:31:11.546Z,8.56
2024-05-09T05:33:39.336Z,8.62
2024-05-09T05:36:10.540Z,8.56
2024-05-09T05:38:38.185Z,8.67
2024-05-09T05:41:12.826Z,8.52
2024-05-09T05:43:40.556Z,8.65
2024-05-09T05:46:10.928Z,8.79
2024-05-09T05:48:38.708Z,8.79
2024-05-09T05:51:09.283Z,8.76
2024-05-09T05:53:37.038Z,8.81
2024-05-09T05:56:08.474Z,8.81
2024-05-09T05:58:38.848Z,8.95
2024-05-09T06:01:09.125Z,9.18
2024-05-09T06:03:37.032Z,9.33
2024-05-09T06:06:07.636Z,9.36
2024-05-09T06:08:35.522Z,9.66
2024-05-09T06:11:06.242Z,9.67
2024-05-09T06:13:34.029Z,9.80
2024-05-09T06:16:07.571Z,9.85
2024-05-09T06:18:36.026Z,10.16
2024-05-09T06:21:06.672Z,10.10
2024-05-09T06:23:34.511Z,10.29
2024-05-09T06:26:04.906Z,10.42
2024-05-09T06:28:32.522Z,10.53
2024-05-09T06:31:07.569Z,10.71
2024-05-09T06:33:35.782Z,10.70
2024-05-09T06:36:06.428Z,10.83
2024-05-09T06:38:34.387Z,10.82
2024-05-09T06:41:04.990Z,11.08
2024-05-09T06:43:32.818Z,11.24
2024-05-09T06:46:03.185Z,11.25
2024-05-09T06:48:33.764Z,11.37
2024-05-09T06:51:04.459Z,11.45
2024-05-09T06:53:32.406Z,11.57
2024-05-09T06:56:03.977Z,11.49
2024-05-09T06:58:31.712Z,11.69
2024-05-09T07:01:02.167Z,11.99
2024-05-09T07:03:33.079Z,11.97
2024-05-09T07:06:05.343Z,12.06
2024-05-09T07:08:33.332Z,12.25
2024-05-09T07:11:04.574Z,12.41
2024-05-09T07:13:32.293Z,12.44
2024-05-09T07:16:02.818Z,12.61
2024-05-09T07:18:33.324Z,12.65
2024-05-09T07:21:03.774Z,12.84
2024-05-09T07:23:31.655Z,13.06
2024-05-09T07:26:02.105Z,12.95
2024-05-09T07:28:29.766Z,13.15
2024-05-09T07:31:00.041Z,13.39
2024-05-09T07:33:27.989Z,13.55
2024-05-09T07:36:01.108Z,13.75
2024-05-09T07:38:28.762Z,13.65
2024-05-09T07:40:59.232Z,13.81
2024-05-09T07:43:28.160Z,14.13
2024-05-09T07:46:23.002Z,13.89
2024-05-09T07:53:56.167Z,13.84
2024-05-09T07:56:32.180Z,14.28
2024-05-09T07:59:00.007Z,14.47
2024-05-09T08:01:30.870Z,14.63
2024-05-09T08:03:58.766Z,14.89
2024-05-09T08:06:32.592Z,15.13
2024-05-09T08:09:05.265Z,15.01
2024-05-09T08:11:38.558Z,14.94
2024-05-09T08:14:06.243Z,14.96
2024-05-09T08:16:36.520Z,15.29
2024-05-09T08:19:04.259Z,15.43
2024-05-09T08:21:37.516Z,15.76
2024-05-09T08:24:05.539Z,15.63
2024-05-09T08:26:35.868Z,15.55
2024-05-09T08:29:03.473Z,15.67
2024-05-09T08:31:33.820Z,15.68
2024-05-09T08:34:01.628Z,15.65
2024-05-09T08:36:32.289Z,15.85
2024-05-09T08:39:05.326Z,15.92
2024-05-09T08:41:33.917Z,15.85
2024-05-09T08:44:05.629Z,15.96
2024-05-09T08:46:34.849Z,16.18
2024-05-09T08:49:06.736Z,16.35
2024-05-09T08:51:34.793Z,16.44
2024-05-09T08:54:08.056Z,16.57
2024-05-09T08:56:35.919Z,17.22
2024-05-09T08:59:10.131Z,17.09
2024-05-09T09:01:41.775Z,17.15
2024-05-09T09:04:13.644Z,17.56
2024-05-09T09:06:42.361Z,17.92
2024-05-09T09:09:15.819Z,18.13
2024-05-09T09:11:43.708Z,18.35
2024-05-09T09:14:14.207Z,18.06
2024-05-09T09:16:41.914Z,18.09
2024-05-09T09:19:12.498Z,17.99
2024-05-09T09:21:40.306Z,17.45
2024-05-09T09:24:10.935Z,17.93
2024-05-09T09:26:41.481Z,18.03
2024-05-09T09:29:11.920Z,18.36
2024-05-09T09:31:39.643Z,18.22
2024-05-09T09:34:12.503Z,18.32
2024-05-09T09:36:43.367Z,18.21
2024-05-09T09:39:16.366Z,17.79
2024-05-09T09:41:48.617Z,17.52
2024-05-09T09:44:20.185Z,17.56
2024-05-09T09:46:48.906Z,17.26
2024-05-09T09:49:21.376Z,16.91
2024-05-09T09:51:50.895Z,16.89
2024-05-09T09:54:22.183Z,17.55
2024-05-09T09:56:54.831Z,18.17
2024-05-09T09:59:25.562Z,18.89
2024-05-09T10:01:53.809Z,19.24
2024-05-09T10:04:24.634Z,19.83
2024-05-09T10:06:56.863Z,19.65
2024-05-09T10:09:27.686Z,19.02
2024-05-09T10:12:09.509Z,18.66
2024-05-09T10:14:44.618Z,18.96
2024-05-09T10:17:12.403Z,19.16
2024-05-09T10:19:44.472Z,19.53
2024-05-09T10:22:12.451Z,19.24
2024-05-09T10:24:53.138Z,19.22
2024-05-09T10:27:30.145Z,18.85
2024-05-09T10:30:06.763Z,18.84
2024-05-09T10:32:40.988Z,18.36
2024-05-09T10:35:15.160Z,18.56
2024-05-09T10:37:42.868Z,18.78
2024-05-09T10:40:26.020Z,19.18
2024-05-09T10:43:04.619Z,19.80
2024-05-09T10:45:38.533Z,19.82
2024-05-09T10:48:08.536Z,19.56
2024-05-09T10:50:43.909Z,19.60
2024-05-09T10:53:11.531Z,19.60
2024-05-09T10:55:41.892Z,19.28
2024-05-09T10:58:19.348Z,18.88
2024-05-09T11:00:49.849Z,18.52
2024-05-09T11:03:18.713Z,18.87
2024-05-09T11:05:50.220Z,19.17
2024-05-09T11:08:18.745Z,19.23
2024-05-09T11:10:52.349Z,19.52
2024-05-09T11:13:30.708Z,19.79
2024-05-09T11:16:01.520Z,19.15
2024-05-09T11:18:35.183Z,19.21
2024-05-09T11:21:14.977Z,18.82
2024-05-09T11:23:42.636Z,19.02
2024-05-09T11:26:15.416Z,19.44
2024-05-09T11:28:46.914Z,19.22
2024-05-09T11:31:17.892Z,19.27
2024-05-09T11:33:51.667Z,19.43
2024-05-09T11:36:19.433Z,19.71
2024-05-09T11:38:49.794Z,19.99
2024-05-09T11:41:21.874Z,19.77
2024-05-09T11:43:52.364Z,19.88
2024-05-09T11:46:23.259Z,19.16
2024-05-09T11:48:51.200Z,19.27
2024-05-09T11:51:21.677Z,19.00
2024-05-09T11:53:49.220Z,18.85
2024-05-09T11:56:19.618Z,18.77
2024-05-09T11:58:47.299Z,18.92
2024-05-09T12:01:22.035Z,18.76
2024-05-09T12:03:51.941Z,18.80
2024-05-09T12:06:22.365Z,18.98
2024-05-09T12:08:50.254Z,19.24
2024-05-09T12:11:20.572Z,19.46
2024-05-09T12:13:48.320Z,19.60
2024-05-09T12:16:21.488Z,19.95
2024-05-09T12:18:49.412Z,20.03
2024-05-09T12:21:19.993Z,20.17
2024-05-09T12:23:47.590Z,20.32
2024-05-09T12:26:18.156Z,20.13
2024-05-09T12:28:45.917Z,20.29
2024-05-09T12:31:16.257Z,20.35
2024-05-09T12:33:46.823Z,20.49
2024-05-09T12:36:17.302Z,21.31
2024-05-09T12:38:45.029Z,21.33
2024-05-09T12:41:15.349Z,21.19
2024-05-09T12:43:42.971Z,21.00
2024-05-09T12:46:13.592Z,20.55
2024-05-09T12:48:41.597Z,20.60
2024-05-09T12:51:14.937Z,20.89
2024-05-09T12:53:42.664Z,20.90
2024-05-09T12:56:13.299Z,20.72
2024-05-09T12:58:41.024Z,20.42
2024-05-09T13:01:11.390Z,20.68
2024-05-09T13:03:39.283Z,20.65
2024-05-09T13:06:09.722Z,20.85
2024-05-09T13:08:40.549Z,21.16
2024-05-09T13:11:10.994Z,21.31
2024-05-09T13:13:38.693Z,21.13
2024-05-09T13:16:09.745Z,20.70
2024-05-09T13:18:37.516Z,20.66
2024-05-09T13:21:09.756Z,20.51
2024-05-09T13:23:40.356Z,20.71
2024-05-09T13:26:10.839Z,20.34
2024-05-09T13:28:38.638Z,20.58
2024-05-09T13:31:13.269Z,20.63
2024-05-09T13:33:41.302Z,20.61
2024-05-09T13:36:11.911Z,20.83
2024-05-09T13:38:44.361Z,20.58
2024-05-09T13:41:14.883Z,20.44
2024-05-09T13:43:42.630Z,21.23
2024-05-09T13:46:13.113Z,21.32
2024-05-09T13:48:40.938Z,21.60
2024-05-09T13:51:11.714Z,22.41
2024-05-09T13:53:42.125Z,22.08
2024-05-09T13:56:12.975Z,21.72
2024-05-09T13:58:40.992Z,20.96
2024-05-09T14:01:11.493Z,20.92
2024-05-09T14:03:39.962Z,20.87
2024-05-09T14:06:13.118Z,20.76
2024-05-09T14:08:43.935Z,21.05
2024-05-09T14:11:15.094Z,21.01
2024-05-09T14:13:44.218Z,21.01
2024-05-09T14:16:21.879Z,22.51
2024-05-09T14:18:55.832Z,22.62
2024-05-09T14:21:26.708Z,22.91
2024-05-09T14:24:04.704Z,23.41
2024-05-09T14:26:35.731Z,23.74
2024-05-09T14:29:12.320Z,23.23
2024-05-09T14:31:43.394Z,22.67
2024-05-09T14:34:11.829Z,23.61
2024-05-09T14:36:45.718Z,24.26
2024-05-09T14:39:16.684Z,24.01
2024-05-09T14:41:47.317Z,23.91
2024-05-09T14:44:15.185Z,23.92
2024-05-09T14:46:46.340Z,24.34
2024-05-09T14:49:14.680Z,24.04
2024-05-09T14:51:50.436Z,24.24
2024-05-09T14:54:20.994Z,24.18
2024-05-09T14:56:51.907Z,24.43
2024-05-09T14:59:19.663Z,25.68
2024-05-09T15:01:50.235Z,24.87
2024-05-09T15:04:18.295Z,24.44
2024-05-09T15:06:53.179Z,24.71
2024-05-09T15:09:23.794Z,23.17
2024-05-09T15:11:54.269Z,21.80
2024-05-09T15:14:23.554Z,21.78
2024-05-09T15:16:54.251Z,22.61
2024-05-09T15:19:22.147Z,23.56
2024-05-09T15:21:52.802Z,24.62
2024-05-09T15:24:23.360Z,24.88
2024-05-09T15:26:53.734Z,25.08
2024-05-09T15:29:21.394Z,24.34
2024-05-09T15:31:51.746Z,23.81
2024-05-09T15:34:19.422Z,24.50
2024-05-09T15:36:51.449Z,24.11
2024-05-09T15:39:19.526Z,24.12
2024-05-09T15:41:53.213Z,23.44
2024-05-09T15:44:20.846Z,22.70
2024-05-09T15:46:52.185Z,22.51
2024-05-09T15:49:20.293Z,22.72
2024-05-09T15:51:50.766Z,23.06
2024-05-09T15:54:18.381Z,23.08
2024-05-09T15:56:50.956Z,23.46
2024-05-09T15:59:21.280Z,23.76
2024-05-09T16:01:51.858Z,23.10
2024-05-09T16:04:19.806Z,23.20
2024-05-09T16:06:50.435Z,22.53
2024-05-09T16:09:18.800Z,22.70
2024-05-09T16:11:49.189Z,22.77
2024-05-09T16:14:16.924Z,22.58
2024-05-09T16:16:50.110Z,23.27
2024-05-09T16:19:17.914Z,23.13
2024-05-09T16:21:48.308Z,23.23
2024-05-09T16:24:16.075Z,23.36
2024-05-09T16:26:46.446Z,23.05
2024-05-09T16:29:14.071Z,22.58
2024-05-09T16:31:44.424Z,22.55
2024-05-09T16:34:14.808Z,22.36
2024-05-09T16:36:45.812Z,22.62
2024-05-09T16:39:13.600Z,22.41
2024-05-09T16:41:43.948Z,22.64
2024-05-09T16:44:11.635Z,22.49
2024-05-09T16:46:42.112Z,21.97
2024-05-09T16:49:11.150Z,22.42
2024-05-09T16:51:44.276Z,22.02
2024-05-09T16:54:11.855Z,22.39
2024-05-09T16:56:42.158Z,21.87
2024-05-09T16:59:12.706Z,22.04
2024-05-09T17:01:40.352Z,22.26
2024-05-09T17:04:10.799Z,22.13
2024-05-09T17:06:41.394Z,22.29
2024-05-09T17:09:15.490Z,22.22
2024-05-09T17:11:43.496Z,21.88
2024-05-09T17:14:13.883Z,21.09
2024-05-09T17:16:44.532Z,20.28
2024-05-09T17:19:15.139Z,19.83
2024-05-09T17:21:45.802Z,19.72
2024-05-09T17:24:16.107Z,19.42
2024-05-09T17:26:43.942Z,19.23
2024-05-09T17:29:14.590Z,18.78
2024-05-09T17:31:42.931Z,18.71
2024-05-09T17:34:13.405Z,18.64
2024-05-09T17:36:41.280Z,18.58
2024-05-09T17:39:14.555Z,18.51
2024-05-09T17:41:43.249Z,18.29
2024-05-09T17:44:14.595Z,18.32
2024-05-09T17:46:42.467Z,18.13
2024-05-09T17:49:12.868Z,18.17
2024-05-09T17:51:51.129Z,17.99
2024-05-09T17:54:24.425Z,17.94
2024-05-09T17:56:52.230Z,17.88
2024-05-09T17:59:22.545Z,17.77
2024-05-09T18:01:50.340Z,17.80
2024-05-09T18:04:21.630Z,17.75
2024-05-09T18:06:49.489Z,17.67
2024-05-09T18:09:20.042Z,17.65
2024-05-09T18:11:50.451Z,17.53
2024-05-09T18:14:20.825Z,17.43
2024-05-09T18:16:48.560Z,17.36
2024-05-09T18:19:19.700Z,17.32
2024-05-09T18:21:49.184Z,17.21
2024-05-09T18:24:22.170Z,17.20
2024-05-09T18:26:52.538Z,17.23
2024-05-09T18:29:23.013Z,17.15
2024-05-09T18:31:50.786Z,16.95
2024-05-09T18:34:21.112Z,16.88
2024-05-09T18:36:51.545Z,16.84
2024-05-09T18:39:19.244Z,16.70
2024-05-09T18:41:49.437Z,16.75
2024-05-09T18:44:19.760Z,16.65
2024-05-09T18:46:50.110Z,16.64
2024-05-09T18:49:18.115Z,16.54
2024-05-09T18:51:49.144Z,16.41
2024-05-09T18:54:16.836Z,16.37
2024-05-09T18:56:47.205Z,16.36
2024-05-09T18:59:15.102Z,16.36
2024-05-09T19:01:48.323Z,16.31
2024-05-09T19:04:18.831Z,16.18
2024-05-09T19:06:49.617Z,16.13
2024-05-09T19:09:17.241Z,16.10
2024-05-09T19:11:47.746Z,15.95
2024-05-09T19:14:15.476Z,15.87
2024-05-09T19:16:48.444Z,15.75
2024-05-09T19:19:16.659Z,15.51
2024-05-09T19:21:47.065Z,15.55
2024-05-09T19:24:17.303Z,15.60
2024-05-09T19:26:48.224Z,15.61
2024-05-09T19:29:16.065Z,15.54
2024-05-09T19:31:49.193Z,15.47
2024-05-09T19:34:17.579Z,15.53
2024-05-09T19:36:48.100Z,15.39
2024-05-09T19:39:15.795Z,15.32
2024-05-09T19:41:46.323Z,15.28
2024-05-09T19:44:13.931Z,15.22
2024-05-09T19:46:44.233Z,15.22
2024-05-09T19:49:14.873Z,15.08
2024-05-09T19:51:45.392Z,15.08
2024-05-09T19:54:13.074Z,15.12
2024-05-09T19:56:45.339Z,14.97
2024-05-09T19:59:15.771Z,14.95
2024-05-09T20:01:43.893Z,14.85
2024-05-09T20:04:17.209Z,14.77
2024-05-09T20:06:45.038Z,14.77
2024-05-09T20:09:15.402Z,14.86
2024-05-09T20:11:43.216Z,14.72
2024-05-09T20:14:15.281Z,14.68
2024-05-09T20:16:45.122Z,14.70
2024-05-09T20:19:18.381Z,14.68
2024-05-09T20:21:46.160Z,14.59
2024-05-09T20:24:16.828Z,14.54
2024-05-09T20:26:44.666Z,14.40
2024-05-09T20:29:15.138Z,14.51
2024-05-09T20:31:42.845Z,14.49
2024-05-09T20:34:13.474Z,14.48
2024-05-09T20:36:43.804Z,14.40
2024-05-09T20:39:14.263Z,14.35
2024-05-09T20:41:43.915Z,14.28
2024-05-09T20:44:14.279Z,14.30
2024-05-09T20:46:42.021Z,14.20
2024-05-09T20:49:12.713Z,14.27
2024-05-09T20:51:40.618Z,14.28
2024-05-09T20:54:13.784Z,14.27
2024-05-09T20:56:41.508Z,14.21
2024-05-09T20:59:11.922Z,14.14
2024-05-09T21:01:39.800Z,14.11
2024-05-09T21:04:10.559Z,14.03
2024-05-09T21:06:38.427Z,13.95
2024-05-09T21:09:08.799Z,13.92
2024-05-09T21:11:39.170Z,13.99
2024-05-09T21:14:09.704Z,13.84
2024-05-09T21:16:38.542Z,13.85
2024-05-09T21:19:09.139Z,13.76
2024-05-09T21:21:39.827Z,13.75
2024-05-09T21:24:10.461Z,13.65
2024-05-09T21:26:41.063Z,13.58
2024-05-09T21:29:11.854Z,13.62
2024-05-09T21:31:39.549Z,13.64
2024-05-09T21:34:09.915Z,13.70
2024-05-09T21:36:37.932Z,13.69
2024-05-09T21:39:08.329Z,13.66
2024-05-09T21:41:35.944Z,13.59
2024-05-09T21:44:09.381Z,13.62
2024-05-09T21:46:37.074Z,13.54
2024-05-09T21:49:07.538Z,13.61
2024-05-09T21:51:35.152Z,13.65
2024-05-09T21:54:05.551Z,13.63
2024-05-09T21:56:33.127Z,13.70
2024-05-09T21:59:03.504Z,13.64
2024-05-09T22:01:35.876Z,13.64
2024-05-09T22:04:06.490Z,13.56
2024-05-09T22:06:34.299Z,13.55
2024-05-09T22:09:05.852Z,13.47
2024-05-09T22:11:33.443Z,13.51
2024-05-09T22:14:03.839Z,13.39
2024-05-09T22:16:34.358Z,13.29
2024-05-09T22:19:05.181Z,13.19
2024-05-09T22:21:32.970Z,13.24
2024-05-09T22:24:03.368Z,13.25
2024-05-09T22:26:31.109Z,13.20
2024-05-09T22:29:01.483Z,13.05
2024-05-09T22:31:29.445Z,12.99
2024-05-09T22:34:02.690Z,12.88
2024-05-09T22:36:30.813Z,12.84
2024-05-09T22:39:01.308Z,12.84
2024-05-09T22:41:29.106Z,12.77
2024-05-09T22:43:59.922Z,12.69
2024-05-09T22:46:27.788Z,12.85
2024-05-09T22:48:58.436Z,12.86
2024-05-09T22:51:28.979Z,12.76
2024-05-09T22:53:59.343Z,12.71
2024-05-09T22:56:28.445Z,12.61
2024-05-09T22:58:59.016Z,12.59
2024-05-09T23:01:27.505Z,12.57
2024-05-09T23:03:58.455Z,12.53
2024-05-09T23:06:28.959Z,12.48
2024-05-09T23:08:59.296Z,12.48
2024-05-09T23:11:26.976Z,12.43
2024-05-09T23:13:57.337Z,12.40
2024-05-09T23:16:25.163Z,12.34
2024-05-09T23:18:55.934Z,12.30
2024-05-09T23:21:26.976Z,12.27
2024-05-09T23:23:57.298Z,12.22
2024-05-09T23:26:27.756Z,12.25
2024-05-09T23:28:55.317Z,12.38
2024-05-09T23:31:25.849Z,12.50
2024-05-09T23:33:55.385Z,12.57
2024-05-09T23:36:25.893Z,12.48
2024-05-09T23:38:53.637Z,12.48
2024-05-09T23:41:26.837Z,12.32
2024-05-09T23:43:54.500Z,12.25
2024-05-09T23:46:24.825Z,12.17
2024-05-09T23:48:52.685Z,12.18
2024-05-09T23:51:23.168Z,12.21
2024-05-09T23:53:50.716Z,12.11
2024-05-09T23:56:21.758Z,12.07
2024-05-09T23:58:52.134Z,12.02
